AXY75P LPPT-EGCC
Flight info
| Callsign | AXY75P |
|---|---|
| Flight time | 2h 18m |
| Altitude | 40000 |
| Route | IXIDA DCT PINEK DCT KORUL DCT KOLEK DCT EBOMO DCT RUSIB DCT NOZHU/N0477F410 DCT SHIRI DCT TOJAQ DCT EPACE DCT ACCOP DCT MOCQO/N0475F400 P16 AXCIS |
| Aircraft | A343/H-SDE2E3FGHIJ4J5M1RWXY/LB1D1 |
Departure
| Time | 2026-05-04 16:28 |
|---|---|
| Airport | Lisbon Humberto Delgado Airport (LPPT) |
Arrival
| Time | 2026-05-04 18:46 |
|---|---|
| Airport | Manchester Airport (EGCC) |
| Time | Latitude | Longitude | Altitude | Speed | Heading |
|---|---|---|---|---|---|
| 2026-05-04 15:51 | 38.76782 | -9.13696 | 349 ft | 0 kts | 78° |
| 2026-05-04 16:15 | 38.76781 | -9.13700 | 349 ft | 3 kts | 78° |
| 2026-05-04 16:16 | 38.76784 | -9.13756 | 360 ft | 4 kts | 111° |
| 2026-05-04 16:16 | 38.76749 | -9.13806 | 359 ft | 4 kts | 348° |
| 2026-05-04 16:17 | 38.76741 | -9.13804 | 359 ft | 0 kts | 348° |
| 2026-05-04 16:22 | 38.76745 | -9.13805 | 359 ft | 1 kts | 348° |
| 2026-05-04 16:22 | 38.76836 | -9.13829 | 356 ft | 5 kts | 348° |
| 2026-05-04 16:23 | 38.76951 | -9.13860 | 360 ft | 7 kts | 348° |
| 2026-05-04 16:24 | 38.76891 | -9.14026 | 353 ft | 16 kts | 202° |
| 2026-05-04 16:25 | 38.76662 | -9.14149 | 354 ft | 16 kts | 203° |
| 2026-05-04 16:26 | 38.76617 | -9.14402 | 334 ft | 9 kts | 13° |
| 2026-05-04 16:26 | 38.76783 | -9.14315 | 355 ft | 49 kts | 22° |
| 2026-05-04 16:27 | 38.78143 | -9.13585 | 376 ft | 155 kts | 22° |
| 2026-05-04 16:28 | 38.81408 | -9.11627 | 2082 ft | 193 kts | 28° |
| 2026-05-04 16:28 | 38.85427 | -9.08485 | 4025 ft | 245 kts | 26° |
| 2026-05-04 16:29 | 38.91492 | -9.03375 | 7746 ft | 275 kts | 39° |
| 2026-05-04 16:30 | 38.95849 | -8.98243 | 10235 ft | 292 kts | 38° |
| 2026-05-04 16:31 | 38.99064 | -8.94492 | 11010 ft | 333 kts | 38° |
| 2026-05-04 16:31 | 39.04568 | -8.88059 | 12440 ft | 374 kts | 39° |
| 2026-05-04 16:32 | 39.10474 | -8.81135 | 14522 ft | 392 kts | 38° |
| 2026-05-04 16:33 | 39.14562 | -8.76333 | 15806 ft | 403 kts | 38° |
| 2026-05-04 16:33 | 39.18567 | -8.71109 | 17134 ft | 417 kts | 45° |
| 2026-05-04 16:34 | 39.22458 | -8.65422 | 18412 ft | 428 kts | 45° |
| 2026-05-04 16:34 | 39.24435 | -8.62521 | 18971 ft | 433 kts | 45° |
| 2026-05-04 16:35 | 39.30486 | -8.53630 | 20735 ft | 445 kts | 45° |
| 2026-05-04 16:35 | 39.36676 | -8.44514 | 22403 ft | 458 kts | 44° |
| 2026-05-04 16:36 | 39.38782 | -8.41405 | 22936 ft | 462 kts | 44° |
| 2026-05-04 16:36 | 39.43056 | -8.35089 | 23918 ft | 470 kts | 44° |
| 2026-05-04 16:37 | 39.47405 | -8.28649 | 24737 ft | 479 kts | 45° |
| 2026-05-04 16:37 | 39.49598 | -8.25395 | 25163 ft | 482 kts | 44° |
| 2026-05-04 16:37 | 39.54037 | -8.18803 | 26005 ft | 488 kts | 45° |
| 2026-05-04 16:38 | 39.58521 | -8.12199 | 26788 ft | 493 kts | 41° |
| 2026-05-04 16:39 | 39.66996 | -8.05218 | 27924 ft | 477 kts | 10° |
| 2026-05-04 16:39 | 39.73435 | -8.04061 | 28666 ft | 462 kts | 351° |
| 2026-05-04 16:40 | 39.79738 | -8.05195 | 29452 ft | 457 kts | 342° |
| 2026-05-04 16:40 | 39.86006 | -8.06832 | 30125 ft | 461 kts | 341° |
| 2026-05-04 16:41 | 39.92324 | -8.08530 | 30762 ft | 463 kts | 341° |
| 2026-05-04 16:41 | 40.01739 | -8.10984 | 31968 ft | 461 kts | 341° |
| 2026-05-04 16:42 | 40.11169 | -8.13427 | 33038 ft | 460 kts | 341° |
| 2026-05-04 16:43 | 40.17414 | -8.15044 | 33903 ft | 456 kts | 341° |
| 2026-05-04 16:43 | 40.23656 | -8.16663 | 34387 ft | 459 kts | 341° |
| 2026-05-04 16:43 | 40.26794 | -8.17483 | 34633 ft | 460 kts | 341° |
| 2026-05-04 16:44 | 40.39313 | -8.20759 | 35634 ft | 461 kts | 341° |
| 2026-05-04 16:45 | 40.45609 | -8.22408 | 36102 ft | 462 kts | 342° |
| 2026-05-04 16:46 | 40.55086 | -8.24895 | 36771 ft | 463 kts | 342° |
| 2026-05-04 16:46 | 40.61419 | -8.26561 | 37241 ft | 464 kts | 342° |
| 2026-05-04 16:47 | 40.67768 | -8.28236 | 37609 ft | 466 kts | 343° |
| 2026-05-04 16:47 | 40.74132 | -8.29916 | 38088 ft | 467 kts | 343° |
| 2026-05-04 16:48 | 40.83639 | -8.32431 | 38728 ft | 467 kts | 343° |
| 2026-05-04 16:48 | 40.86827 | -8.33280 | 38902 ft | 467 kts | 343° |
| 2026-05-04 16:49 | 40.93207 | -8.34976 | 39246 ft | 467 kts | 343° |
| 2026-05-04 16:49 | 40.99580 | -8.36671 | 39592 ft | 467 kts | 343° |
| 2026-05-04 16:50 | 41.05956 | -8.38371 | 39891 ft | 467 kts | 343° |
| 2026-05-04 16:50 | 41.12342 | -8.40079 | 40068 ft | 471 kts | 343° |
| 2026-05-04 16:51 | 41.22006 | -8.42669 | 40065 ft | 470 kts | 343° |
| 2026-05-04 16:52 | 41.34829 | -8.46116 | 40071 ft | 470 kts | 343° |
| 2026-05-04 16:53 | 41.44412 | -8.48702 | 40063 ft | 470 kts | 343° |
| 2026-05-04 16:54 | 41.57271 | -8.52184 | 40070 ft | 471 kts | 344° |
| 2026-05-04 16:55 | 41.76562 | -8.57436 | 40071 ft | 472 kts | 344° |
| 2026-05-04 16:56 | 41.83091 | -8.58653 | 40073 ft | 479 kts | 355° |
| 2026-05-04 16:56 | 41.92907 | -8.55734 | 40080 ft | 492 kts | 17° |
| 2026-05-04 16:57 | 42.02466 | -8.50594 | 40069 ft | 494 kts | 18° |
| 2026-05-04 16:58 | 42.15204 | -8.43648 | 40075 ft | 493 kts | 18° |
| 2026-05-04 17:00 | 42.34255 | -8.33353 | 40077 ft | 492 kts | 18° |
| 2026-05-04 17:01 | 42.50153 | -8.24706 | 40073 ft | 493 kts | 18° |
| 2026-05-04 17:02 | 42.62887 | -8.17746 | 40070 ft | 493 kts | 18° |
| 2026-05-04 17:03 | 42.72429 | -8.12510 | 40069 ft | 493 kts | 18° |
| 2026-05-04 17:03 | 42.81950 | -8.07268 | 40071 ft | 491 kts | 19° |
| 2026-05-04 17:04 | 42.94583 | -8.00286 | 40069 ft | 491 kts | 19° |
| 2026-05-04 17:05 | 43.07239 | -7.93260 | 40067 ft | 490 kts | 19° |
| 2026-05-04 17:06 | 43.15655 | -7.88570 | 40059 ft | 490 kts | 19° |
| 2026-05-04 17:07 | 43.24073 | -7.83866 | 40058 ft | 490 kts | 19° |
| 2026-05-04 17:07 | 43.31453 | -7.79729 | 40054 ft | 490 kts | 20° |
| 2026-05-04 17:08 | 43.40883 | -7.74429 | 40046 ft | 489 kts | 20° |
| 2026-05-04 17:09 | 43.47225 | -7.70853 | 40041 ft | 489 kts | 20° |
| 2026-05-04 17:09 | 43.53483 | -7.67317 | 40040 ft | 489 kts | 20° |
| 2026-05-04 17:10 | 43.69247 | -7.58375 | 40024 ft | 489 kts | 20° |
| 2026-05-04 17:11 | 43.75548 | -7.54788 | 40021 ft | 490 kts | 20° |
| 2026-05-04 17:12 | 43.84996 | -7.49391 | 40016 ft | 489 kts | 20° |
| 2026-05-04 17:13 | 44.00678 | -7.40393 | 40013 ft | 489 kts | 21° |
| 2026-05-04 17:14 | 44.13210 | -7.33163 | 40009 ft | 489 kts | 21° |
| 2026-05-04 17:15 | 44.22634 | -7.27707 | 40007 ft | 489 kts | 21° |
| 2026-05-04 17:16 | 44.35190 | -7.20406 | 39997 ft | 489 kts | 21° |
| 2026-05-04 17:17 | 44.47722 | -7.13086 | 39996 ft | 489 kts | 21° |
| 2026-05-04 17:18 | 44.60292 | -7.05711 | 39997 ft | 489 kts | 21° |
| 2026-05-04 17:19 | 44.72838 | -6.98314 | 39995 ft | 489 kts | 21° |
| 2026-05-04 17:20 | 44.85215 | -6.90523 | 39993 ft | 489 kts | 28° |
| 2026-05-04 17:20 | 44.94089 | -6.83361 | 39989 ft | 490 kts | 29° |
| 2026-05-04 17:21 | 45.05875 | -6.73595 | 39985 ft | 490 kts | 29° |
| 2026-05-04 17:22 | 45.11772 | -6.68709 | 39985 ft | 490 kts | 29° |
| 2026-05-04 17:23 | 45.23544 | -6.58929 | 39985 ft | 490 kts | 30° |
| 2026-05-04 17:24 | 45.32315 | -6.51610 | 39987 ft | 490 kts | 30° |
| 2026-05-04 17:25 | 45.44084 | -6.41749 | 39989 ft | 490 kts | 30° |
| 2026-05-04 17:26 | 45.55819 | -6.31866 | 39983 ft | 490 kts | 30° |
| 2026-05-04 17:27 | 45.70470 | -6.19460 | 39982 ft | 490 kts | 30° |
| 2026-05-04 17:28 | 45.82196 | -6.09476 | 39985 ft | 490 kts | 30° |
| 2026-05-04 17:29 | 45.99702 | -5.94476 | 39985 ft | 489 kts | 30° |
| 2026-05-04 17:31 | 46.14315 | -5.81871 | 39981 ft | 490 kts | 31° |
| 2026-05-04 17:32 | 46.28910 | -5.69203 | 39985 ft | 489 kts | 31° |
| 2026-05-04 17:33 | 46.40564 | -5.59032 | 39990 ft | 490 kts | 31° |
| 2026-05-04 17:34 | 46.52201 | -5.48822 | 39982 ft | 490 kts | 31° |
| 2026-05-04 17:35 | 46.66778 | -5.35961 | 39985 ft | 490 kts | 31° |
| 2026-05-04 17:36 | 46.72603 | -5.30802 | 39985 ft | 490 kts | 31° |
| 2026-05-04 17:36 | 46.78428 | -5.25630 | 39982 ft | 491 kts | 31° |
| 2026-05-04 17:37 | 46.84264 | -5.20434 | 39989 ft | 491 kts | 31° |
| 2026-05-04 17:37 | 46.90101 | -5.15225 | 39990 ft | 491 kts | 31° |
| 2026-05-04 17:38 | 46.95890 | -5.10044 | 39983 ft | 491 kts | 31° |
| 2026-05-04 17:38 | 47.01714 | -5.04819 | 39983 ft | 491 kts | 31° |
| 2026-05-04 17:39 | 47.10447 | -4.96958 | 39981 ft | 490 kts | 32° |
| 2026-05-04 17:39 | 47.16254 | -4.91715 | 39984 ft | 490 kts | 32° |
| 2026-05-04 17:40 | 47.22068 | -4.86451 | 39987 ft | 490 kts | 32° |
| 2026-05-04 17:40 | 47.27868 | -4.81187 | 39978 ft | 490 kts | 32° |
| 2026-05-04 17:41 | 47.33634 | -4.75940 | 39984 ft | 489 kts | 32° |
| 2026-05-04 17:41 | 47.39424 | -4.70655 | 39993 ft | 489 kts | 32° |
| 2026-05-04 17:42 | 47.45215 | -4.65358 | 39991 ft | 489 kts | 32° |
| 2026-05-04 17:42 | 47.51003 | -4.60048 | 39990 ft | 489 kts | 32° |
| 2026-05-04 17:43 | 47.56777 | -4.54738 | 39995 ft | 489 kts | 32° |
| 2026-05-04 17:43 | 47.62547 | -4.49417 | 39983 ft | 489 kts | 32° |
| 2026-05-04 17:44 | 47.68319 | -4.44080 | 39991 ft | 489 kts | 32° |
| 2026-05-04 17:44 | 47.74048 | -4.38769 | 39990 ft | 488 kts | 32° |
| 2026-05-04 17:45 | 47.79813 | -4.33447 | 39990 ft | 488 kts | 30° |
| 2026-05-04 17:45 | 47.86065 | -4.29619 | 39988 ft | 487 kts | 18° |
| 2026-05-04 17:46 | 47.92564 | -4.26711 | 39995 ft | 488 kts | 16° |
| 2026-05-04 17:46 | 47.99090 | -4.23957 | 39990 ft | 487 kts | 15° |
| 2026-05-04 17:47 | 48.05627 | -4.21191 | 39994 ft | 488 kts | 15° |
| 2026-05-04 17:47 | 48.12112 | -4.18414 | 39994 ft | 488 kts | 16° |
| 2026-05-04 17:48 | 48.18635 | -4.15599 | 39992 ft | 488 kts | 16° |
| 2026-05-04 17:48 | 48.25158 | -4.12774 | 39992 ft | 487 kts | 16° |
| 2026-05-04 17:49 | 48.31678 | -4.09944 | 39990 ft | 487 kts | 16° |
| 2026-05-04 17:49 | 48.38202 | -4.07106 | 39992 ft | 487 kts | 16° |
| 2026-05-04 17:50 | 48.44686 | -4.04278 | 39995 ft | 488 kts | 16° |
| 2026-05-04 17:50 | 48.51212 | -4.01424 | 39995 ft | 488 kts | 16° |
| 2026-05-04 17:51 | 48.57737 | -3.98563 | 39995 ft | 488 kts | 16° |
| 2026-05-04 17:51 | 48.64259 | -3.95695 | 39992 ft | 487 kts | 16° |
| 2026-05-04 17:52 | 48.70758 | -3.92829 | 39994 ft | 486 kts | 16° |
| 2026-05-04 17:52 | 48.77258 | -3.89956 | 39992 ft | 487 kts | 16° |
| 2026-05-04 17:53 | 48.83715 | -3.87094 | 39992 ft | 487 kts | 16° |
| 2026-05-04 17:53 | 48.90217 | -3.84204 | 39995 ft | 487 kts | 16° |
| 2026-05-04 17:54 | 48.96736 | -3.81479 | 39994 ft | 487 kts | 10° |
| 2026-05-04 17:54 | 49.03476 | -3.80497 | 39997 ft | 486 kts | 3° |
| 2026-05-04 17:55 | 49.10231 | -3.80032 | 40001 ft | 486 kts | 2° |
| 2026-05-04 17:55 | 49.15855 | -3.79722 | 39996 ft | 486 kts | 2° |
| 2026-05-04 17:56 | 49.22617 | -3.79341 | 40001 ft | 486 kts | 2° |
| 2026-05-04 17:56 | 49.29389 | -3.78936 | 40001 ft | 485 kts | 2° |
| 2026-05-04 17:57 | 49.36130 | -3.78523 | 39996 ft | 484 kts | 2° |
| 2026-05-04 17:57 | 49.42869 | -3.78107 | 40003 ft | 484 kts | 2° |
| 2026-05-04 17:58 | 49.49605 | -3.77691 | 40005 ft | 484 kts | 2° |
| 2026-05-04 17:58 | 49.56289 | -3.77278 | 40004 ft | 484 kts | 2° |
| 2026-05-04 17:59 | 49.63021 | -3.76860 | 40000 ft | 484 kts | 2° |
| 2026-05-04 18:00 | 49.73135 | -3.76168 | 40000 ft | 484 kts | 4° |
| 2026-05-04 18:00 | 49.79847 | -3.75354 | 40001 ft | 484 kts | 5° |
| 2026-05-04 18:01 | 49.86566 | -3.74478 | 40000 ft | 484 kts | 5° |
| 2026-05-04 18:01 | 49.93285 | -3.73646 | 40002 ft | 484 kts | 4° |
| 2026-05-04 18:02 | 50.03367 | -3.72444 | 39996 ft | 484 kts | 4° |
| 2026-05-04 18:02 | 50.10088 | -3.71646 | 39995 ft | 484 kts | 4° |
| 2026-05-04 18:03 | 50.16768 | -3.70850 | 39995 ft | 484 kts | 4° |
| 2026-05-04 18:03 | 50.23477 | -3.70048 | 39996 ft | 484 kts | 4° |
| 2026-05-04 18:04 | 50.30185 | -3.69240 | 39999 ft | 484 kts | 4° |
| 2026-05-04 18:05 | 50.40252 | -3.68023 | 39992 ft | 483 kts | 4° |
| 2026-05-04 18:05 | 50.46947 | -3.67022 | 39992 ft | 483 kts | 7° |
| 2026-05-04 18:06 | 50.56937 | -3.64995 | 39993 ft | 483 kts | 7° |
| 2026-05-04 18:06 | 50.63603 | -3.63664 | 39992 ft | 482 kts | 7° |
| 2026-05-04 18:07 | 50.70266 | -3.62377 | 39992 ft | 482 kts | 7° |
| 2026-05-04 18:07 | 50.76926 | -3.61103 | 39994 ft | 482 kts | 7° |
| 2026-05-04 18:08 | 50.83592 | -3.59824 | 39996 ft | 482 kts | 7° |
| 2026-05-04 18:08 | 50.90201 | -3.58550 | 39995 ft | 481 kts | 7° |
| 2026-05-04 18:09 | 51.03502 | -3.55973 | 40006 ft | 481 kts | 7° |
| 2026-05-04 18:10 | 51.10145 | -3.54680 | 40009 ft | 481 kts | 7° |
| 2026-05-04 18:10 | 51.16793 | -3.53383 | 40009 ft | 481 kts | 7° |
| 2026-05-04 18:11 | 51.23441 | -3.52082 | 40008 ft | 481 kts | 7° |
| 2026-05-04 18:11 | 51.30083 | -3.50785 | 40009 ft | 481 kts | 7° |
| 2026-05-04 18:12 | 51.36731 | -3.49473 | 40021 ft | 481 kts | 7° |
| 2026-05-04 18:12 | 51.43350 | -3.48163 | 40022 ft | 482 kts | 7° |
| 2026-05-04 18:13 | 51.49995 | -3.46846 | 40022 ft | 481 kts | 7° |
| 2026-05-04 18:14 | 51.59967 | -3.44864 | 40018 ft | 480 kts | 7° |
| 2026-05-04 18:14 | 51.66601 | -3.43541 | 40020 ft | 480 kts | 7° |
| 2026-05-04 18:15 | 51.73226 | -3.42216 | 39759 ft | 479 kts | 7° |
| 2026-05-04 18:15 | 51.79814 | -3.40894 | 39074 ft | 475 kts | 7° |
| 2026-05-04 18:15 | 51.83094 | -3.40234 | 38500 ft | 476 kts | 7° |
| 2026-05-04 18:16 | 51.86386 | -3.39571 | 37877 ft | 476 kts | 7° |
| 2026-05-04 18:16 | 51.89667 | -3.38909 | 37299 ft | 476 kts | 8° |
| 2026-05-04 18:16 | 51.92949 | -3.38245 | 36696 ft | 475 kts | 8° |
| 2026-05-04 18:17 | 51.99536 | -3.37420 | 35503 ft | 476 kts | 3° |
| 2026-05-04 18:17 | 52.02843 | -3.37259 | 34873 ft | 475 kts | 2° |
| 2026-05-04 18:17 | 52.09448 | -3.36973 | 33486 ft | 475 kts | 3° |
| 2026-05-04 18:18 | 52.12758 | -3.36789 | 32631 ft | 476 kts | 3° |
| 2026-05-04 18:18 | 52.16061 | -3.36578 | 31756 ft | 478 kts | 3° |
| 2026-05-04 18:18 | 52.19351 | -3.36349 | 30885 ft | 480 kts | 3° |
| 2026-05-04 18:18 | 52.22698 | -3.36105 | 29985 ft | 482 kts | 3° |
| 2026-05-04 18:19 | 52.29377 | -3.35613 | 28471 ft | 475 kts | 4° |
| 2026-05-04 18:19 | 52.32656 | -3.35371 | 27854 ft | 469 kts | 4° |
| 2026-05-04 18:19 | 52.35892 | -3.35132 | 27252 ft | 463 kts | 3° |
| 2026-05-04 18:20 | 52.39092 | -3.34896 | 26654 ft | 458 kts | 3° |
| 2026-05-04 18:20 | 52.42268 | -3.34664 | 26045 ft | 454 kts | 3° |
| 2026-05-04 18:20 | 52.45408 | -3.34433 | 25457 ft | 450 kts | 3° |
| 2026-05-04 18:20 | 52.48529 | -3.34208 | 24859 ft | 447 kts | 3° |
| 2026-05-04 18:21 | 52.51621 | -3.33984 | 24269 ft | 443 kts | 4° |
| 2026-05-04 18:21 | 52.54687 | -3.33757 | 23663 ft | 439 kts | 3° |
| 2026-05-04 18:21 | 52.57735 | -3.33527 | 22995 ft | 436 kts | 3° |
| 2026-05-04 18:21 | 52.60746 | -3.33278 | 22392 ft | 431 kts | 5° |
| 2026-05-04 18:22 | 52.63673 | -3.32404 | 21804 ft | 425 kts | 16° |
| 2026-05-04 18:22 | 52.66480 | -3.30940 | 21215 ft | 420 kts | 19° |
| 2026-05-04 18:22 | 52.69226 | -3.29365 | 20636 ft | 416 kts | 20° |
| 2026-05-04 18:22 | 52.71942 | -3.27770 | 20054 ft | 413 kts | 20° |
| 2026-05-04 18:23 | 52.74637 | -3.26179 | 19666 ft | 409 kts | 20° |
| 2026-05-04 18:23 | 52.77320 | -3.24582 | 19309 ft | 410 kts | 20° |
| 2026-05-04 18:23 | 52.80005 | -3.22977 | 18924 ft | 410 kts | 20° |
| 2026-05-04 18:23 | 52.82686 | -3.21369 | 18553 ft | 409 kts | 20° |
| 2026-05-04 18:24 | 52.85359 | -3.19765 | 18161 ft | 409 kts | 20° |
| 2026-05-04 18:24 | 52.88036 | -3.18197 | 17756 ft | 407 kts | 17° |
| 2026-05-04 18:24 | 52.90762 | -3.17310 | 17383 ft | 404 kts | 5° |
| 2026-05-04 18:24 | 52.93563 | -3.17010 | 17016 ft | 402 kts | 2° |
| 2026-05-04 18:25 | 52.96344 | -3.16806 | 16644 ft | 398 kts | 2° |
| 2026-05-04 18:25 | 52.99104 | -3.16606 | 16266 ft | 395 kts | 2° |
| 2026-05-04 18:25 | 53.01842 | -3.16402 | 15901 ft | 392 kts | 2° |
| 2026-05-04 18:25 | 53.04560 | -3.16194 | 15537 ft | 390 kts | 2° |
| 2026-05-04 18:26 | 53.07268 | -3.15983 | 15175 ft | 388 kts | 2° |
| 2026-05-04 18:26 | 53.09956 | -3.15772 | 14818 ft | 386 kts | 2° |
| 2026-05-04 18:26 | 53.12639 | -3.15560 | 14459 ft | 384 kts | 1° |
| 2026-05-04 18:26 | 53.15269 | -3.15353 | 14094 ft | 382 kts | 2° |
| 2026-05-04 18:27 | 53.17914 | -3.15143 | 13735 ft | 380 kts | 1° |
| 2026-05-04 18:27 | 53.20536 | -3.14935 | 13372 ft | 378 kts | 1° |
| 2026-05-04 18:27 | 53.23153 | -3.14726 | 13006 ft | 375 kts | 1° |
| 2026-05-04 18:27 | 53.25747 | -3.14519 | 12677 ft | 372 kts | 1° |
| 2026-05-04 18:28 | 53.28328 | -3.14313 | 12332 ft | 370 kts | 1° |
| 2026-05-04 18:28 | 53.30884 | -3.14107 | 12082 ft | 362 kts | 1° |
| 2026-05-04 18:28 | 53.33359 | -3.13907 | 11874 ft | 350 kts | 1° |
| 2026-05-04 18:28 | 53.35743 | -3.13717 | 11679 ft | 339 kts | 1° |
| 2026-05-04 18:29 | 53.38048 | -3.13116 | 11459 ft | 332 kts | 18° |
| 2026-05-04 18:29 | 53.39962 | -3.11059 | 11258 ft | 327 kts | 46° |
| 2026-05-04 18:29 | 53.41240 | -3.07977 | 11110 ft | 318 kts | 59° |
| 2026-05-04 18:29 | 53.42313 | -3.04777 | 10884 ft | 311 kts | 59° |
| 2026-05-04 18:30 | 53.44394 | -2.98585 | 10424 ft | 301 kts | 59° |
| 2026-05-04 18:30 | 53.45427 | -2.95556 | 9838 ft | 299 kts | 58° |
| 2026-05-04 18:30 | 53.46460 | -2.92545 | 9259 ft | 295 kts | 58° |
| 2026-05-04 18:31 | 53.47478 | -2.89583 | 8755 ft | 293 kts | 58° |
| 2026-05-04 18:31 | 53.48494 | -2.86631 | 8470 ft | 291 kts | 58° |
| 2026-05-04 18:31 | 53.49500 | -2.83705 | 8199 ft | 287 kts | 58° |
| 2026-05-04 18:31 | 53.50497 | -2.80803 | 7919 ft | 287 kts | 58° |
| 2026-05-04 18:32 | 53.51494 | -2.77904 | 7658 ft | 286 kts | 59° |
| 2026-05-04 18:32 | 53.52475 | -2.75004 | 7408 ft | 282 kts | 59° |
| 2026-05-04 18:32 | 53.53411 | -2.72138 | 7154 ft | 278 kts | 60° |
| 2026-05-04 18:32 | 53.54316 | -2.69341 | 7058 ft | 267 kts | 60° |
| 2026-05-04 18:33 | 53.55198 | -2.66631 | 7049 ft | 261 kts | 60° |
| 2026-05-04 18:33 | 53.56066 | -2.63944 | 7049 ft | 262 kts | 59° |
| 2026-05-04 18:33 | 53.56934 | -2.61251 | 7053 ft | 262 kts | 60° |
| 2026-05-04 18:33 | 53.57807 | -2.58571 | 7056 ft | 261 kts | 60° |
| 2026-05-04 18:34 | 53.58673 | -2.55892 | 7035 ft | 261 kts | 59° |
| 2026-05-04 18:34 | 53.59535 | -2.53226 | 6872 ft | 258 kts | 59° |
| 2026-05-04 18:34 | 53.60395 | -2.50580 | 6700 ft | 256 kts | 60° |
| 2026-05-04 18:34 | 53.61245 | -2.47947 | 6530 ft | 256 kts | 60° |
| 2026-05-04 18:35 | 53.62091 | -2.45321 | 6352 ft | 255 kts | 60° |
| 2026-05-04 18:35 | 53.62929 | -2.42742 | 6164 ft | 254 kts | 60° |
| 2026-05-04 18:35 | 53.63769 | -2.40130 | 5988 ft | 253 kts | 60° |
| 2026-05-04 18:35 | 53.64609 | -2.37528 | 5802 ft | 252 kts | 60° |
| 2026-05-04 18:36 | 53.65463 | -2.34911 | 5621 ft | 251 kts | 60° |
| 2026-05-04 18:36 | 53.66290 | -2.32361 | 5444 ft | 251 kts | 60° |
| 2026-05-04 18:36 | 53.67125 | -2.29783 | 5266 ft | 250 kts | 60° |
| 2026-05-04 18:36 | 53.67961 | -2.27218 | 5078 ft | 249 kts | 60° |
| 2026-05-04 18:37 | 53.68526 | -2.24469 | 5004 ft | 251 kts | 82° |
| 2026-05-04 18:37 | 53.68612 | -2.21532 | 4997 ft | 251 kts | 89° |
| 2026-05-04 18:37 | 53.68370 | -2.18635 | 4995 ft | 251 kts | 110° |
| 2026-05-04 18:37 | 53.67615 | -2.15979 | 4997 ft | 251 kts | 119° |
| 2026-05-04 18:38 | 53.66709 | -2.13458 | 4993 ft | 252 kts | 128° |
| 2026-05-04 18:38 | 53.65485 | -2.11337 | 4998 ft | 252 kts | 139° |
| 2026-05-04 18:38 | 53.64160 | -2.09399 | 4997 ft | 253 kts | 140° |
| 2026-05-04 18:38 | 53.62836 | -2.07494 | 5001 ft | 253 kts | 140° |
| 2026-05-04 18:39 | 53.61490 | -2.05590 | 4991 ft | 253 kts | 140° |
| 2026-05-04 18:39 | 53.60137 | -2.03690 | 4993 ft | 253 kts | 140° |
| 2026-05-04 18:39 | 53.58650 | -2.02152 | 4993 ft | 248 kts | 156° |
| 2026-05-04 18:39 | 53.57046 | -2.01315 | 4982 ft | 235 kts | 168° |
| 2026-05-04 18:40 | 53.55474 | -2.00781 | 4901 ft | 228 kts | 170° |
| 2026-05-04 18:40 | 53.53930 | -2.00290 | 4716 ft | 225 kts | 170° |
| 2026-05-04 18:40 | 53.52401 | -1.99807 | 4532 ft | 222 kts | 170° |
| 2026-05-04 18:40 | 53.50878 | -1.99632 | 4342 ft | 218 kts | 184° |
| 2026-05-04 18:41 | 53.49402 | -1.99882 | 4182 ft | 206 kts | 198° |
| 2026-05-04 18:41 | 53.48245 | -2.01089 | 4033 ft | 190 kts | 226° |
| 2026-05-04 18:41 | 53.47394 | -2.02701 | 3873 ft | 181 kts | 233° |
| 2026-05-04 18:41 | 53.46614 | -2.04325 | 3620 ft | 177 kts | 233° |
| 2026-05-04 18:42 | 53.45857 | -2.05886 | 3360 ft | 173 kts | 233° |
| 2026-05-04 18:42 | 53.45105 | -2.07433 | 3123 ft | 169 kts | 232° |
| 2026-05-04 18:42 | 53.44370 | -2.08949 | 2874 ft | 166 kts | 234° |
| 2026-05-04 18:42 | 53.43648 | -2.10445 | 2653 ft | 164 kts | 233° |
| 2026-05-04 18:43 | 53.42926 | -2.11936 | 2440 ft | 165 kts | 234° |
| 2026-05-04 18:43 | 53.42204 | -2.13427 | 2209 ft | 165 kts | 235° |
| 2026-05-04 18:43 | 53.41483 | -2.14915 | 1981 ft | 163 kts | 235° |
| 2026-05-04 18:43 | 53.40774 | -2.16378 | 1772 ft | 158 kts | 235° |
| 2026-05-04 18:44 | 53.40107 | -2.17752 | 1549 ft | 146 kts | 235° |
| 2026-05-04 18:44 | 53.39895 | -2.18188 | 1481 ft | 141 kts | 236° |
| 2026-05-04 18:44 | 53.38932 | -2.20177 | 1182 ft | 128 kts | 234° |
| 2026-05-04 18:44 | 53.38373 | -2.21331 | 1010 ft | 128 kts | 235° |
| 2026-05-04 18:45 | 53.37811 | -2.22491 | 825 ft | 127 kts | 232° |
| 2026-05-04 18:45 | 53.37444 | -2.23248 | 719 ft | 126 kts | 232° |
| 2026-05-04 18:45 | 53.36706 | -2.24770 | 463 ft | 126 kts | 230° |
| 2026-05-04 18:45 | 53.36337 | -2.25518 | 368 ft | 125 kts | 230° |
| 2026-05-04 18:46 | 53.35791 | -2.26635 | 274 ft | 114 kts | 231° |
| 2026-05-04 18:46 | 53.35327 | -2.27586 | 246 ft | 45 kts | 231° |
| 2026-05-04 18:46 | 53.35165 | -2.27925 | 239 ft | 36 kts | 231° |
| 2026-05-04 18:46 | 53.35065 | -2.28138 | 237 ft | 32 kts | 232° |
| 2026-05-04 18:47 | 53.34975 | -2.28406 | 240 ft | 21 kts | 251° |
| 2026-05-04 18:47 | 53.34947 | -2.28588 | 236 ft | 11 kts | 259° |
| 2026-05-04 18:47 | 53.34946 | -2.28691 | 235 ft | 7 kts | 289° |
| 2026-05-04 18:47 | 53.34988 | -2.28742 | 233 ft | 8 kts | 356° |
| 2026-05-04 18:48 | 53.35019 | -2.28721 | 233 ft | 0 kts | 32° |
| 2026-05-04 18:48 | 53.35028 | -2.28708 | 234 ft | 3 kts | 39° |
| 2026-05-04 18:48 | 53.35038 | -2.28691 | 237 ft | 1 kts | 45° |
| 2026-05-04 18:48 | 53.35040 | -2.28689 | 237 ft | 0 kts | 45° |
| 2026-05-04 18:49 | 53.35043 | -2.28683 | 234 ft | 1 kts | 45° |
| 2026-05-04 18:49 | 53.35046 | -2.28679 | 234 ft | 0 kts | 45° |
| 2026-05-04 18:49 | 53.35056 | -2.28659 | 236 ft | 5 kts | 49° |
| 2026-05-04 18:49 | 53.35092 | -2.28587 | 236 ft | 11 kts | 51° |
| 2026-05-04 18:50 | 53.35153 | -2.28462 | 233 ft | 12 kts | 51° |
| 2026-05-04 18:50 | 53.35201 | -2.28362 | 238 ft | 10 kts | 51° |
| 2026-05-04 18:50 | 53.35247 | -2.28282 | 241 ft | 12 kts | 42° |
| 2026-05-04 18:50 | 53.35334 | -2.28193 | 238 ft | 17 kts | 22° |
| 2026-05-04 18:51 | 53.35456 | -2.28147 | 239 ft | 18 kts | 14° |
| 2026-05-04 18:51 | 53.35526 | -2.28088 | 238 ft | 10 kts | 38° |
| 2026-05-04 18:51 | 53.35569 | -2.28013 | 241 ft | 8 kts | 50° |
| 2026-05-04 18:51 | 53.35603 | -2.27945 | 243 ft | 8 kts | 50° |
| 2026-05-04 18:52 | 53.35656 | -2.27894 | 246 ft | 10 kts | 10° |
| 2026-05-04 18:52 | 53.35724 | -2.27878 | 250 ft | 10 kts | 6° |
| 2026-05-04 18:52 | 53.35799 | -2.27866 | 254 ft | 11 kts | 6° |
| 2026-05-04 18:52 | 53.35881 | -2.27852 | 258 ft | 12 kts | 6° |
| 2026-05-04 18:53 | 53.35964 | -2.27872 | 259 ft | 13 kts | 335° |
| 2026-05-04 18:53 | 53.36042 | -2.27886 | 259 ft | 12 kts | 17° |
| 2026-05-04 18:53 | 53.36118 | -2.27925 | 259 ft | 13 kts | 325° |
| 2026-05-04 18:53 | 53.36187 | -2.28023 | 259 ft | 13 kts | 317° |
| 2026-05-04 18:54 | 53.36250 | -2.28126 | 259 ft | 11 kts | 315° |
| 2026-05-04 18:54 | 53.36308 | -2.28223 | 259 ft | 12 kts | 314° |
| 2026-05-04 18:54 | 53.36350 | -2.28296 | 259 ft | 4 kts | 314° |
| 2026-05-04 18:54 | 53.36372 | -2.28307 | 259 ft | 2 kts | 6° |
| 2026-05-04 18:55 | 53.36399 | -2.28279 | 259 ft | 5 kts | 38° |
| 2026-05-04 18:55 | 53.36418 | -2.28251 | 259 ft | 0 kts | 44° |